Time;durP1;ratioP1;P1;durP2;ratioP2;P2;SDS_P1;SDS_P2;PMS_P1;PMS_P2;Temp;Humidity;BMP_temperature;BMP_pressure;BME280_temperature;BME280_humidity;BME280_pressure;Samples;Min_cycle;Max_cycle;Signal;HPM_P1;HPM_P2
2022/06/05 00:01:35;;;;;;;5.43;3.45;;;;;;;18.07;65.49;101722.69;5053059;28;20086;-36
2022/06/05 00:04:11;;;;;;;5.35;3.97;;;;;;;18.05;65.00;101713.91;5052714;28;20035;-36
2022/06/05 00:06:48;;;;;;;6.00;3.70;;;;;;;18.01;65.35;101710.06;5053286;28;20032;-37
2022/06/05 00:09:33;;;;;;;3.80;3.33;;;;;;;18.05;65.32;101710.34;5052834;28;20029;-37
2022/06/05 00:12:21;;;;;;;4.28;3.58;;;;;;;18.02;65.32;101704.31;5051983;28;20043;-37
2022/06/05 00:14:47;;;;;;;7.80;3.72;;;;;;;17.93;66.13;101688.63;5053313;28;20020;-36
2022/06/05 00:17:16;;;;;;;5.68;3.83;;;;;;;17.97;65.81;101689.75;5052257;28;20079;-36
2022/06/05 00:19:45;;;;;;;5.85;3.60;;;;;;;17.95;65.93;101687.25;5052558;28;20401;-36
2022/06/05 00:22:10;;;;;;;6.80;3.60;;;;;;;17.92;65.72;101681.50;5052204;28;20550;-36
2022/06/05 00:24:36;;;;;;;;;;;;;;;18.00;64.71;101689.22;5053158;28;20053;-36
2022/06/05 00:27:23;;;;;;;5.55;4.05;;;;;;;17.89;65.81;101687.47;5052772;28;19944;-36
2022/06/05 00:30:12;;;;;;;4.47;3.95;;;;;;;17.85;66.05;101683.59;5052420;28;20436;-36
2022/06/05 00:32:49;;;;;;;5.28;4.07;;;;;;;17.78;65.95;101666.59;5052462;28;20027;-36
2022/06/05 00:35:17;;;;;;;4.10;3.55;;;;;;;17.83;66.41;101659.25;5052371;28;20112;-36
2022/06/05 00:38:12;;;;;;;5.07;4.00;;;;;;;17.85;66.22;101678.13;5052149;28;20033;-36
2022/06/05 00:40:46;;;;;;;7.30;4.05;;;;;;;17.79;66.03;101671.78;5052682;28;20025;-36
2022/06/05 00:43:15;;;;;;;5.35;3.90;;;;;;;17.68;66.14;101642.66;5052633;28;20484;-36
2022/06/05 00:45:41;;;;;;;6.38;3.97;;;;;;;17.76;66.46;101661.38;5052393;28;20036;-36
2022/06/05 00:48:08;;;;;;;4.50;4.10;;;;;;;17.64;66.55;101655.22;5052650;28;20025;-36
2022/06/05 00:50:34;;;;;;;4.70;3.88;;;;;;;17.64;66.57;101655.22;5052638;28;20039;-36
2022/06/05 00:53:02;;;;;;;5.35;3.70;;;;;;;17.66;66.88;101653.84;5051907;28;20072;-36
2022/06/05 00:55:31;;;;;;;5.85;4.18;;;;;;;17.59;67.10;101649.69;5052141;28;20358;-36
2022/06/05 00:57:57;;;;;;;5.50;4.10;;;;;;;17.55;66.67;101646.63;5052194;28;20055;-36
2022/06/05 01:00:29;;;;;;;;;;;;;;;17.61;66.51;101648.34;5052678;28;20021;-36
2022/06/05 01:02:56;;;;;;;5.60;4.28;;;;;;;17.55;67.24;101649.38;5052398;28;19999;-36
2022/06/05 01:05:25;;;;;;;5.50;3.78;;;;;;;17.55;67.37;101652.09;5084284;28;20473;-36
2022/06/05 01:07:51;;;;;;;4.80;4.00;;;;;;;17.59;67.00;101655.97;5052342;28;20118;-36
2022/06/05 01:10:19;;;;;;;5.35;4.28;;;;;;;17.53;66.73;101648.00;5052111;28;20025;-36
2022/06/05 01:13:04;;;;;;;4.97;4.00;;;;;;;17.55;67.43;101641.16;5052101;28;20029;-36
2022/06/05 01:15:48;;;;;;;4.95;3.97;;;;;;;17.27;67.54;101616.81;5050651;28;20025;-36
2022/06/05 01:18:27;;;;;;;4.28;3.78;;;;;;;17.46;67.75;101635.34;5052051;28;20036;-36
2022/06/05 01:21:10;;;;;;;6.60;4.03;;;;;;;17.43;67.52;101644.06;5051805;28;20029;-36
2022/06/05 01:23:52;;;;;;;5.97;4.22;;;;;;;17.41;67.64;101639.94;5054220;28;20056;-36
2022/06/05 01:26:40;;;;;;;7.28;4.13;;;;;;;17.42;67.25;101641.56;5055795;28;20444;-36
2022/06/05 01:29:08;;;;;;;5.00;3.80;;;;;;;17.48;67.41;101630.44;5055433;28;20028;-36
2022/06/05 01:31:48;;;;;;;5.10;3.75;;;;;;;17.36;67.11;101618.81;5055838;28;20076;-36
2022/06/05 01:34:20;;;;;;;5.03;4.45;;;;;;;17.29;67.03;101614.66;5055668;28;20025;-36
2022/06/05 01:36:54;;;;;;;5.68;3.67;;;;;;;17.45;67.46;101635.59;5055865;28;20036;-36
2022/06/05 01:39:28;;;;;;;5.78;4.22;;;;;;;17.49;66.64;101634.00;5055812;28;20044;-37
2022/06/05 01:41:58;;;;;;;6.07;4.10;;;;;;;17.44;66.87;101645.72;5055028;28;20024;-36
2022/06/05 01:44:32;;;;;;;5.43;3.80;;;;;;;17.51;66.00;101672.84;5055045;28;20509;-37
2022/06/05 01:47:04;;;;;;;7.10;3.70;;;;;;;17.53;66.36;101672.59;5055424;28;20025;-36
2022/06/05 01:49:55;;;;;;;6.55;3.88;;;;;;;17.58;65.96;101678.94;5055745;28;20053;-36
2022/06/05 01:52:37;;;;;;;5.45;3.90;;;;;;;17.62;66.03;101717.56;5033052;28;20044;-36
2022/06/05 01:55:12;;;;;;;7.85;3.85;;;;;;;17.71;65.29;101716.84;5033233;28;20052;-36
2022/06/05 01:57:38;;;;;;;4.72;3.83;;;;;;;17.72;66.03;101690.31;5033347;28;20343;-36
2022/06/05 02:00:03;;;;;;;;;;;;;;;17.67;65.79;101657.44;5033039;28;20034;-36
2022/06/05 02:02:34;;;;;;;5.90;4.60;;;;;;;17.39;66.69;101622.97;5033380;28;19913;-36
2022/06/05 02:05:05;;;;;;;5.88;4.15;;;;;;;17.50;66.54;101639.22;5032565;28;20033;-36
2022/06/05 02:07:40;;;;;;;6.13;3.78;;;;;;;17.58;66.39;101656.25;5032854;28;20459;-36
2022/06/05 02:10:13;;;;;;;4.47;3.80;;;;;;;17.53;66.16;101643.34;5033241;28;20048;-36
2022/06/05 02:12:39;;;;;;;4.40;3.53;;;;;;;17.66;66.55;101640.19;5033119;28;20514;-36
2022/06/05 02:15:04;;;;;;;;;;;;;;;17.73;65.35;101632.63;5032990;28;20092;-36
2022/06/05 02:17:31;;;;;;;5.60;3.70;;;;;;;17.58;66.01;101616.06;5032988;28;19909;-36
2022/06/05 02:19:59;;;;;;;4.43;3.60;;;;;;;17.52;66.24;101595.22;5032238;28;20044;-36
2022/06/05 02:22:32;;;;;;;6.15;3.50;;;;;;;17.50;66.45;101591.91;5032291;28;20050;-36
2022/06/05 02:24:58;;;;;;;4.88;3.72;;;;;;;17.42;66.37;101586.88;5032198;28;20033;-36
2022/06/05 02:27:24;;;;;;;;;;;;;;;17.51;65.98;101582.59;5033290;28;20036;-36
2022/06/05 02:29:50;;;;;;;6.88;3.78;;;;;;;17.44;66.06;101574.63;5048286;28;19916;-36
2022/06/05 02:32:45;;;;;;;6.38;4.40;;;;;;;17.22;66.74;101558.28;5055062;28;20028;-36
2022/06/05 02:35:48;;;;;;;8.60;3.80;;;;;;;17.33;66.23;101561.94;5053909;28;20033;-36
2022/06/05 02:38:35;;;;;;;5.97;3.45;;;;;;;17.27;66.73;101567.59;5054791;28;20040;-36
2022/06/05 02:41:05;;;;;;;6.50;3.80;;;;;;;17.43;66.75;101561.22;5054519;28;20025;-36
2022/06/05 02:44:28;;;;;;;7.43;4.07;;;;;;;17.33;66.99;101558.41;5055022;28;20372;-36
2022/06/05 02:46:44;;;;;;;6.53;3.65;;;;;;;17.37;66.30;101560.34;5054376;28;20454;-36
2022/06/05 02:49:22;;;;;;;5.13;3.78;;;;;;;17.30;66.65;101553.44;5054202;28;20057;-36
2022/06/05 02:51:48;;;;;;;8.63;4.15;;;;;;;17.25;67.39;101544.09;5054514;28;20033;-36
2022/06/05 02:54:24;;;;;;;5.30;3.90;;;;;;;17.17;66.57;101535.53;5053671;28;20039;-36
2022/06/05 02:56:49;;;;;;;6.40;4.35;;;;;;;17.09;67.12;101522.34;5054248;28;20021;-36
2022/06/05 02:59:15;;;;;;;;;;;;;;;17.25;66.39;101527.69;5054245;28;20350;-36
2022/06/05 03:04:24;;;;;;;6.22;4.30;;;;;;;16.99;67.89;101515.72;5053784;28;20066;-36
2022/06/05 03:06:49;;;;;;;;;;;;;;;17.06;67.10;101514.66;5054672;28;20115;-36
2022/06/05 03:09:15;;;;;;;5.93;4.20;;;;;;;16.93;68.17;101502.22;5053405;28;19930;-36
2022/06/05 03:11:42;;;;;;;;;;;;;;;17.01;67.20;101490.84;5054101;28;20114;-36
2022/06/05 03:14:07;;;;;;;4.93;4.10;;;;;;;16.79;68.44;101484.59;5053554;28;20356;-36
2022/06/05 03:16:33;;;;;;;;;;;;;;;16.89;68.12;101485.56;5054485;28;20082;-36
2022/06/05 03:18:58;;;;;;;7.47;4.60;;;;;;;16.77;69.52;101489.50;5053653;28;20254;-36
2022/06/05 03:21:24;;;;;;;;;;;;;;;16.84;68.53;101487.41;5054225;28;20025;-36
2022/06/05 03:23:49;;;;;;;4.87;4.37;;;;;;;16.69;69.10;101480.66;5053521;28;20361;-36
2022/06/05 03:26:15;;;;;;;5.03;4.40;;;;;;;16.61;70.00;101477.56;5053347;28;20801;-36
2022/06/05 03:28:40;;;;;;;;;;;;;;;16.70;69.35;101487.78;5054279;28;20051;-36
2022/06/05 03:31:08;;;;;;;6.25;5.22;;;;;;;16.62;70.25;101482.75;5053633;28;19924;-36
2022/06/05 03:33:35;;;;;;;7.15;4.93;;;;;;;16.53;71.39;101487.00;5053188;28;20109;-36
2022/06/05 03:36:00;;;;;;;6.90;4.88;;;;;;;16.51;71.52;101478.25;5053646;28;20040;-36
2022/06/05 03:38:26;;;;;;;6.53;4.95;;;;;;;16.53;71.69;101467.09;5053176;28;20025;-36
2022/06/05 03:40:51;;;;;;;;;;;;;;;16.50;71.68;101464.88;5054294;28;20163;-36
2022/06/05 03:43:16;;;;;;;6.37;5.20;;;;;;;16.30;72.17;101468.16;5053090;28;19947;-36
2022/06/05 03:45:42;;;;;;;7.15;5.75;;;;;;;16.28;72.42;101471.16;5052663;28;20262;-36
2022/06/05 03:48:08;;;;;;;7.65;5.10;;;;;;;16.32;72.32;101458.66;5052862;28;20493;-36
2022/06/05 03:50:34;;;;;;;;;;;;;;;16.48;71.68;101476.84;5053940;28;20025;-36
2022/06/05 03:52:59;;;;;;;7.63;4.90;;;;;;;16.35;72.41;101473.72;5053629;28;20269;-36
2022/06/05 03:55:25;;;;;;;;;;;;;;;16.51;70.89;101482.91;5053922;28;20111;-36
2022/06/05 03:57:51;;;;;;;8.45;5.32;;;;;;;16.37;71.54;101479.72;5052894;28;19919;-36
2022/06/05 04:00:18;;;;;;;7.13;5.32;;;;;;;16.34;72.10;101499.31;5052832;28;20125;-36
2022/06/05 04:02:44;;;;;;;6.57;5.20;;;;;;;16.33;71.67;101492.22;5052916;28;20051;-36
2022/06/05 04:05:11;;;;;;;;;;;;;;;16.46;70.46;101489.13;5053320;28;20398;-36
2022/06/05 04:07:36;;;;;;;8.70;5.20;;;;;;;16.43;72.49;101493.16;5052691;28;19913;-36
2022/06/05 04:10:02;;;;;;;;;;;;;;;16.52;70.67;101501.75;5053667;28;20025;-36
2022/06/05 04:12:27;;;;;;;5.60;4.85;;;;;;;16.49;71.82;101496.78;5052905;28;19909;-36
2022/06/05 04:14:52;;;;;;;;;;;;;;;16.53;70.64;101497.94;5053409;28;20205;-36
2022/06/05 04:17:18;;;;;;;5.93;4.87;;;;;;;16.38;71.73;101497.75;5053180;28;19962;-36
2022/06/05 04:19:43;;;;;;;;;;;;;;;16.47;70.84;101493.50;5053102;28;20290;-36
2022/06/05 04:22:08;;;;;;;8.37;5.60;;;;;;;16.32;71.85;101485.13;5053443;28;19955;-36
2022/06/05 04:24:34;;;;;;;;;;;;;;;16.45;70.95;101490.22;5085016;28;20113;-36
2022/06/05 04:26:59;;;;;;;8.52;5.60;;;;;;;16.29;72.11;101480.97;5052344;28;19909;-36
2022/06/05 04:29:24;;;;;;;;;;;;;;;16.35;71.14;101469.06;5052650;28;20040;-36
2022/06/05 04:31:50;;;;;;;8.30;5.67;;;;;;;16.23;73.30;101474.63;5052930;28;20383;-36
2022/06/05 04:34:19;;;;;;;5.07;4.57;;;;;;;16.27;72.88;101458.59;5052073;28;20565;-36
2022/06/05 04:36:46;;;;;;;7.82;5.07;;;;;;;16.27;72.59;101463.22;5052884;28;20171;-36
2022/06/05 04:39:12;;;;;;;8.40;5.57;;;;;;;16.29;72.67;101472.78;5052414;28;20025;-36
2022/06/05 04:41:38;;;;;;;5.85;5.10;;;;;;;16.18;72.75;101466.38;5052714;28;20029;-36
2022/06/05 04:44:05;;;;;;;5.90;5.30;;;;;;;16.22;73.16;101475.72;5052456;28;20033;-36
2022/06/05 04:46:31;;;;;;;6.57;5.50;;;;;;;16.31;73.28;101467.09;5053271;28;20126;-36
2022/06/05 04:48:57;;;;;;;5.88;5.28;;;;;;;16.31;73.21;101469.84;5052294;28;20045;-36
2022/06/05 04:51:23;;;;;;;7.10;5.43;;;;;;;16.38;72.96;101473.19;5052365;28;20087;-36
2022/06/05 04:53:49;;;;;;;;;;;;;;;16.37;72.50;101468.81;5053227;28;20025;-36
2022/06/05 04:56:18;;;;;;;7.57;5.72;;;;;;;16.08;73.21;101452.63;5051196;28;19999;-36
2022/06/05 04:58:44;;;;;;;7.90;5.55;;;;;;;16.17;73.56;101467.47;5055785;28;20041;-36
2022/06/05 05:01:17;;;;;;;;;;;;;;;16.26;72.99;101464.31;5057492;28;20090;-36
2022/06/05 05:03:42;;;;;;;6.50;5.13;;;;;;;16.16;73.89;101465.84;5056244;28;19913;-36
2022/06/05 05:06:08;;;;;;;6.72;5.32;;;;;;;16.11;73.75;101467.66;5056732;28;20036;-36
2022/06/05 05:08:34;;;;;;;8.07;5.55;;;;;;;16.08;73.78;101458.06;5055975;28;20111;-36
2022/06/05 05:11:00;;;;;;;7.38;6.00;;;;;;;16.01;74.00;101446.53;5056568;28;20041;-36
2022/06/05 05:13:25;;;;;;;;;;;;;;;16.20;73.24;101471.59;5055919;28;20347;-36
2022/06/05 05:15:52;;;;;;;7.80;5.47;;;;;;;16.00;73.61;101472.13;5056047;28;19963;-36
2022/06/05 05:18:18;;;;;;;6.57;5.60;;;;;;;16.04;74.21;101469.75;5055872;28;20024;-36
2022/06/05 05:20:43;;;;;;;;;;;;;;;16.13;73.39;101477.25;5056086;28;20482;-36
2022/06/05 05:23:09;;;;;;;7.38;5.35;;;;;;;16.06;74.36;101475.78;5056395;28;20357;-36
2022/06/05 05:25:34;;;;;;;;;;;;;;;16.19;73.18;101473.50;5055445;28;20040;-36
2022/06/05 05:28:00;;;;;;;6.50;5.63;;;;;;;16.14;74.34;101476.16;5055438;28;19913;-36
2022/06/05 05:30:26;;;;;;;;;;;;;;;16.23;73.27;101477.38;5056780;28;20043;-36
2022/06/05 05:32:52;;;;;;;7.35;5.75;;;;;;;16.17;74.17;101478.38;5055142;28;20078;-36
2022/06/05 05:35:20;;;;;;;;;;;;;;;16.25;73.53;101465.38;5056398;28;20104;-36
2022/06/05 05:37:46;;;;;;;6.03;4.68;;;;;;;16.14;73.76;101462.50;5055805;28;19908;-36
2022/06/05 05:42:55;;;;;;;8.32;5.47;;;;;;;16.10;73.56;101458.63;5055785;28;19919;-36
2022/06/05 05:45:20;;;;;;;;;;;;;;;16.18;73.54;101463.66;5056351;28;20103;-36
2022/06/05 05:47:45;;;;;;;10.27;5.07;;;;;;;16.23;73.98;101460.19;5055431;28;19913;-36
2022/06/05 05:50:11;;;;;;;;;;;;;;;16.28;73.39;101471.16;5055910;28;20346;-36
2022/06/05 05:52:38;;;;;;;7.38;5.50;;;;;;;16.26;73.23;101462.41;5055386;28;19912;-36
2022/06/05 05:55:04;;;;;;;6.88;5.57;;;;;;;16.28;73.04;101471.16;5055456;28;20029;-36
2022/06/05 05:57:29;;;;;;;6.55;5.75;;;;;;;16.21;73.03;101452.25;5055455;28;20028;-36
2022/06/05 05:59:55;;;;;;;7.53;5.65;;;;;;;16.35;73.84;101457.34;5054907;28;20036;-36
2022/06/05 06:02:25;;;;;;;;;;;;;;;16.45;73.15;101458.28;5055393;28;20074;-36
2022/06/05 06:04:51;;;;;;;7.28;5.22;;;;;;;16.45;73.26;101450.09;5055010;28;19920;-36
2022/06/05 06:07:18;;;;;;;5.88;5.28;;;;;;;16.50;73.93;101449.31;5055090;28;20129;-36
2022/06/05 06:09:43;;;;;;;;;;;;;;;16.57;72.44;101440.91;5054352;28;20036;-36
2022/06/05 06:12:10;;;;;;;6.28;5.65;;;;;;;16.50;72.58;101443.88;5054985;28;19913;-36
2022/06/05 06:14:36;;;;;;;6.95;5.68;;;;;;;16.48;72.40;101429.63;5054315;28;20024;-36
2022/06/05 06:17:02;;;;;;;5.93;5.13;;;;;;;16.48;72.51;101437.81;5054803;28;20029;-36
2022/06/05 06:19:28;;;;;;;6.57;5.43;;;;;;;16.64;72.93;101445.13;5054968;28;20128;-36
2022/06/05 06:21:53;;;;;;;;;;;;;;;16.74;73.04;101433.50;5055541;28;20033;-36
2022/06/05 06:24:18;;;;;;;6.33;5.73;;;;;;;16.69;72.99;101420.59;5054424;28;19942;-36
2022/06/05 06:26:43;;;;;;;;;;;;;;;16.91;72.39;101422.47;5054836;28;20477;-36
2022/06/05 06:29:10;;;;;;;5.80;5.18;;;;;;;16.97;71.91;101418.69;5054272;28;20313;-36
2022/06/05 06:31:38;;;;;;;7.45;5.18;;;;;;;16.93;71.31;101414.81;5054775;28;20097;-36
2022/06/05 06:34:04;;;;;;;9.05;6.20;;;;;;;16.91;71.85;101406.06;5054664;28;20536;-36
2022/06/05 06:36:29;;;;;;;;;;;;;;;17.08;71.70;101414.97;5055147;28;20109;-36
2022/06/05 06:38:54;;;;;;;5.65;5.10;;;;;;;17.07;71.21;101413.28;5054929;28;20018;-36
2022/06/05 06:41:20;;;;;;;;;;;;;;;17.18;70.89;101419.69;5054631;28;20036;-36
2022/06/05 06:43:46;;;;;;;6.13;5.40;;;;;;;17.19;71.06;101408.50;5054306;28;19959;-36
2022/06/05 06:46:13;;;;;;;6.82;5.38;;;;;;;17.07;70.63;101388.72;5054347;28;20052;-36
2022/06/05 06:48:38;;;;;;;6.22;5.32;;;;;;;17.23;71.46;101392.41;5054501;28;20131;-36
2022/06/05 06:51:05;;;;;;;;;;;;;;;17.40;71.29;101392.22;5054763;28;20064;-36
2022/06/05 06:53:33;;;;;;;6.28;5.57;;;;;;;17.43;70.60;101386.25;5053922;28;20265;-36
2022/06/05 06:55:58;;;;;;;6.72;5.50;;;;;;;17.44;70.47;101377.78;5054340;28;20037;-36
2022/06/05 06:58:23;;;;;;;;;;;;;;;17.56;70.55;101377.56;5054510;28;20038;-37
2022/06/05 07:00:49;;;;;;;6.63;5.13;;;;;;;17.51;71.34;101369.34;5054349;28;19913;-36
2022/06/05 07:03:14;;;;;;;;;;;;;;;17.69;70.93;101370.81;5053929;28;20263;-36
2022/06/05 07:05:40;;;;;;;7.30;5.00;;;;;;;17.75;71.11;101358.81;5054421;28;20006;-36
2022/06/05 07:08:07;;;;;;;;;;;;;;;17.75;69.48;101356.91;5053675;28;20458;-36
2022/06/05 07:10:32;;;;;;;6.28;4.85;;;;;;;17.72;70.21;101362.09;5053905;28;20261;-36
2022/06/05 07:12:57;;;;;;;;;;;;;;;17.86;69.68;101362.44;5054027;28;20040;-36
2022/06/05 07:15:23;;;;;;;5.00;4.37;;;;;;;17.91;70.37;101368.78;5054296;28;19921;-36
2022/06/05 07:17:48;;;;;;;;;;;;;;;18.01;69.05;101357.03;5054197;28;20036;-36
2022/06/05 07:20:14;;;;;;;6.35;5.50;;;;;;;18.07;69.53;101334.06;5053138;28;20351;-36
2022/06/05 07:22:39;;;;;;;;;;;;;;;18.26;69.06;101340.69;5054281;28;20107;-36
2022/06/05 07:25:05;;;;;;;7.57;4.97;;;;;;;18.36;69.46;101334.41;5053382;28;19912;-36
2022/06/05 07:27:30;;;;;;;;;;;;;;;18.49;68.61;101349.47;5053616;28;20267;-36
2022/06/05 07:29:56;;;;;;;5.70;5.10;;;;;;;18.48;68.63;101336.88;5053291;28;19958;-36
2022/06/05 07:32:22;;;;;;;;;;;;;;;18.58;67.99;101331.41;5053866;28;20262;-36
2022/06/05 07:34:48;;;;;;;6.00;4.47;;;;;;;18.70;68.27;101331.19;5053179;28;20003;-36
2022/06/05 07:37:14;;;;;;;5.82;4.85;;;;;;;18.76;67.86;101336.41;5053327;28;20071;-36
2022/06/05 07:39:40;;;;;;;7.90;5.50;;;;;;;18.77;68.05;101338.03;5053067;28;20064;-36
2022/06/05 07:42:07;;;;;;;7.95;5.22;;;;;;;18.78;67.93;101319.66;5053611;28;20096;-36
2022/06/05 07:44:32;;;;;;;5.88;5.25;;;;;;;18.93;68.07;101321.59;5052882;28;20032;-35
2022/06/05 07:46:58;;;;;;;;;;;;;;;19.10;67.94;101326.78;5053503;28;20393;-35
2022/06/05 07:49:23;;;;;;;5.23;4.73;;;;;;;19.23;68.55;101321.56;5053130;28;19921;-35
2022/06/05 07:54:34;;;;;;;5.68;5.18;;;;;;;19.22;66.40;101311.66;5053067;28;20040;-37
2022/06/05 07:57:03;;;;;;;;;;;;;;;19.35;67.10;101313.03;5053010;28;20029;-36
2022/06/05 07:59:31;;;;;;;6.25;4.80;;;;;;;19.32;67.04;101305.34;5052363;28;19917;-36
2022/06/05 08:01:59;;;;;;;5.85;4.90;;;;;;;19.46;67.63;101311.06;5053507;28;20036;-36
2022/06/05 08:04:26;;;;;;;6.13;5.50;;;;;;;19.43;66.27;101295.19;5053181;28;20029;-36
2022/06/05 08:06:53;;;;;;;8.30;5.50;;;;;;;19.45;65.66;101299.28;5052964;28;20039;-36
2022/06/05 08:09:19;;;;;;;7.20;5.60;;;;;;;19.38;66.79;101284.25;5052656;28;20348;-36
2022/06/05 08:11:45;;;;;;;;;;;;;;;19.59;66.35;101282.22;5053597;28;20105;-36
2022/06/05 08:14:11;;;;;;;6.05;5.22;;;;;;;19.66;66.82;101282.78;5053062;28;19948;-36
2022/06/05 08:16:39;;;;;;;;;;;;;;;19.78;66.68;101277.78;5053398;28;20067;-36
2022/06/05 08:19:05;;;;;;;5.47;4.82;;;;;;;19.78;66.23;101278.59;5052207;28;19909;-36
2022/06/05 08:21:30;;;;;;;;;;;;;;;19.85;65.79;101282.97;5053464;28;20036;-36
2022/06/05 08:23:56;;;;;;;7.17;5.50;;;;;;;19.72;65.96;101277.00;5052268;28;19995;-36
2022/06/05 08:26:21;;;;;;;5.53;4.82;;;;;;;19.81;67.16;101263.47;5053030;28;20033;-36
2022/06/05 08:28:46;;;;;;;7.72;5.68;;;;;;;20.19;65.41;101283.84;5052094;28;20063;-36
2022/06/05 08:31:12;;;;;;;6.65;6.05;;;;;;;20.37;66.14;101276.06;5052734;28;20029;-36
2022/06/05 08:33:37;;;;;;;8.07;5.57;;;;;;;20.43;65.32;101278.47;5055824;28;20036;-36
2022/06/05 08:36:02;;;;;;;8.82;5.28;;;;;;;20.57;65.83;101275.91;5056859;28;20111;-36
2022/06/05 08:41:43;;;;;;;6.10;5.50;;;;;;;20.67;64.90;101264.03;5074072;28;20028;-36
2022/06/05 08:44:39;;;;;;;5.78;5.28;;;;;;;20.73;64.25;101273.84;5074382;28;20076;-36
2022/06/05 08:47:32;;;;;;;7.80;5.18;;;;;;;20.80;64.97;101274.34;5074720;28;20044;-36
2022/06/05 08:50:06;;;;;;;6.70;5.45;;;;;;;20.85;64.53;101277.06;5074854;28;20388;-36
2022/06/05 08:52:37;;;;;;;5.85;5.25;;;;;;;20.95;64.92;101273.38;5074161;28;20078;-36
2022/06/05 08:55:12;;;;;;;7.68;5.28;;;;;;;21.03;64.86;101270.81;5073884;28;20063;-36
2022/06/05 08:57:45;;;;;;;5.30;4.90;;;;;;;20.93;64.38;101256.34;5074063;28;20082;-36
2022/06/05 09:00:32;;;;;;;5.95;4.95;;;;;;;21.05;64.53;101273.28;5073984;28;20166;-36
2022/06/05 09:03:08;;;;;;;5.50;5.00;;;;;;;20.96;64.09;101269.50;5073973;28;20031;-36
2022/06/05 09:05:36;;;;;;;5.45;5.05;;;;;;;21.01;63.93;101283.22;5074158;28;20033;-36
2022/06/05 09:08:09;;;;;;;5.35;4.85;;;;;;;20.95;65.24;101274.19;5074038;28;20029;-36
2022/06/05 09:10:34;;;;;;;9.48;5.30;;;;;;;20.94;65.48;101272.56;5073811;28;20021;-36
2022/06/05 09:13:06;;;;;;;5.80;4.83;;;;;;;20.94;64.01;101266.25;5059929;28;20446;-36
2022/06/05 09:15:38;;;;;;;7.05;5.55;;;;;;;20.90;64.18;101281.69;5055829;28;20276;-36
2022/06/05 09:18:13;;;;;;;8.38;4.85;;;;;;;20.91;65.80;101284.13;5055605;28;20522;-36
2022/06/05 09:20:47;;;;;;;5.97;4.63;;;;;;;20.87;65.42;101290.50;5056228;28;20112;-36
2022/06/05 09:23:20;;;;;;;7.75;5.38;;;;;;;20.72;66.42;101274.97;5056484;28;20033;-36
2022/06/05 09:26:00;;;;;;;6.47;4.82;;;;;;;20.78;65.34;101271.88;5055629;28;20021;-36
2022/06/05 09:28:33;;;;;;;5.57;5.07;;;;;;;20.82;66.01;101278.44;5055889;28;20021;-36
2022/06/05 09:31:07;;;;;;;5.40;4.88;;;;;;;20.83;65.96;101271.81;5055978;28;20484;-36
2022/06/05 09:33:36;;;;;;;5.95;5.20;;;;;;;20.81;66.55;101267.75;5055601;28;20076;-36
2022/06/05 09:36:05;;;;;;;6.63;5.75;;;;;;;20.66;66.28;101254.97;5055591;28;20097;-36
2022/06/05 09:38:37;;;;;;;6.47;5.30;;;;;;;20.73;66.54;101262.84;5055229;28;20124;-36
2022/06/05 09:41:12;;;;;;;6.25;5.60;;;;;;;20.69;66.87;101259.03;5055585;28;20371;-36
2022/06/05 09:43:55;;;;;;;6.85;5.03;;;;;;;20.65;67.55;101264.31;5055310;28;20025;-36
2022/06/05 09:46:48;;;;;;;6.70;6.10;;;;;;;20.67;66.42;101264.03;5055067;28;20473;-36
2022/06/05 09:49:36;;;;;;;6.00;5.35;;;;;;;20.60;67.03;101249.81;5055850;28;20457;-36
2022/06/05 09:52:15;;;;;;;5.70;5.20;;;;;;;20.61;67.45;101256.94;5056436;28;20048;-36
2022/06/05 09:54:52;;;;;;;6.30;5.22;;;;;;;20.57;67.18;101248.44;5055545;28;20036;-36
2022/06/05 10:00:15;;;;;;;8.27;5.75;;;;;;;20.51;67.96;101242.19;5055422;28;20489;-36
2022/06/05 10:02:43;;;;;;;6.03;5.45;;;;;;;20.45;67.66;101237.00;5054819;28;20025;-36
2022/06/05 10:05:23;;;;;;;6.50;5.82;;;;;;;20.42;68.10;101232.88;5054846;28;20025;-36
2022/06/05 10:07:56;;;;;;;6.47;5.75;;;;;;;20.38;68.21;101234.56;5055286;28;20057;-36
2022/06/05 10:10:27;;;;;;;6.72;5.95;;;;;;;20.33;69.18;101229.09;5055866;28;20029;-36
2022/06/05 10:13:03;;;;;;;6.00;5.40;;;;;;;20.37;68.88;101224.69;5055191;28;20052;-36
2022/06/05 10:15:43;;;;;;;6.97;5.43;;;;;;;20.32;69.06;101220.06;5055452;28;20093;-36
2022/06/05 10:18:16;;;;;;;7.97;6.47;;;;;;;20.28;69.17;101221.72;5055324;28;20025;-36
2022/06/05 10:20:50;;;;;;;6.40;5.40;;;;;;;20.26;69.78;101223.13;5055071;28;20033;-36
2022/06/05 10:23:49;;;;;;;6.95;5.93;;;;;;;20.26;69.54;101217.66;5055078;28;20025;-36
2022/06/05 10:26:29;;;;;;;7.72;5.35;;;;;;;20.24;69.60;101204.19;5053350;28;20033;-36
2022/06/05 10:29:22;;;;;;;7.22;6.25;;;;;;;20.35;69.80;101206.84;5054830;28;20116;-36
2022/06/05 10:32:01;;;;;;;8.60;5.88;;;;;;;20.41;70.73;101206.53;5055249;28;20029;-36
2022/06/05 10:34:48;;;;;;;6.28;5.60;;;;;;;20.46;71.51;101197.44;5054765;28;20037;-36
2022/06/05 10:37:14;;;;;;;;;;;;;;;20.56;71.91;101206.41;5055672;28;20033;-36
2022/06/05 10:40:17;;;;;;;7.37;6.17;;;;;;;20.54;72.50;101200.38;5055275;28;19916;-36
2022/06/05 10:43:04;;;;;;;7.00;6.40;;;;;;;20.56;72.39;101209.16;5054196;28;20072;-36
2022/06/05 10:45:41;;;;;;;7.22;6.47;;;;;;;20.56;74.48;101209.16;5054608;28;20025;-36
2022/06/05 10:48:15;;;;;;;8.35;6.72;;;;;;;20.55;75.81;101203.97;5054415;28;20032;-36
2022/06/05 10:51:03;;;;;;;7.07;6.35;;;;;;;20.57;75.27;101204.47;5054272;28;20056;-36
2022/06/05 10:53:53;;;;;;;9.95;7.43;;;;;;;20.56;77.25;101202.84;5054423;28;20032;-36
2022/06/05 10:56:50;;;;;;;7.88;7.15;;;;;;;20.49;75.44;101196.84;5054393;28;20531;-36
2022/06/05 10:59:23;;;;;;;9.03;6.83;;;;;;;20.42;77.83;101199.09;5053539;28;20041;-36
2022/06/05 11:02:16;;;;;;;7.70;7.00;;;;;;;20.29;76.99;101193.16;5054212;28;20294;-36
2022/06/05 11:04:50;;;;;;;10.70;8.43;;;;;;;20.21;79.03;101196.53;5054120;28;20098;-36
2022/06/05 11:07:37;;;;;;;8.25;7.45;;;;;;;20.14;78.79;101198.78;5054079;28;20021;-36
2022/06/05 11:13:42;;;;;;;8.55;7.78;;;;;;;19.99;81.30;101196.16;5053458;28;20469;-36
2022/06/05 11:16:30;;;;;;;8.38;7.68;;;;;;;19.96;79.89;101193.97;5053611;28;20029;-36
2022/06/05 11:19:12;;;;;;;8.65;7.82;;;;;;;19.92;80.54;101190.16;5049766;28;20041;-36
2022/06/05 11:21:42;;;;;;;8.52;7.72;;;;;;;19.85;80.68;101181.41;5053468;28;20028;-36
2022/06/05 11:24:19;;;;;;;8.23;7.50;;;;;;;19.69;81.71;101170.56;5053288;28;20025;-36
2022/06/05 11:27:02;;;;;;;8.55;7.75;;;;;;;19.66;81.14;101171.09;5053144;28;20041;-36
2022/06/05 11:30:02;;;;;;;8.50;7.55;;;;;;;19.69;82.45;101180.72;5053224;28;20046;-36
2022/06/05 11:32:43;;;;;;;8.50;7.45;;;;;;;19.68;83.49;101179.88;5031544;28;20575;-36
2022/06/05 11:35:33;;;;;;;9.10;8.23;;;;;;;19.65;85.00;101172.22;5031330;28;20111;-36
2022/06/05 11:38:12;;;;;;;8.98;8.05;;;;;;;19.60;85.46;101185.97;5031520;28;20072;-36
2022/06/05 11:41:19;;;;;;;8.70;7.97;;;;;;;19.53;86.51;101175.28;5031260;28;20030;-36
2022/06/05 11:43:48;;;;;;;9.32;8.45;;;;;;;19.34;88.76;101171.53;5031422;28;20075;-36
2022/06/05 11:46:37;;;;;;;9.18;8.27;;;;;;;19.28;88.97;101170.75;5031301;28;20034;-36
2022/06/05 11:49:22;;;;;;;8.75;7.93;;;;;;;19.34;89.85;101176.22;5030695;28;20133;-36
2022/06/05 11:52:24;;;;;;;10.00;9.10;;;;;;;19.26;90.04;101167.47;5030850;28;20038;-36
2022/06/05 11:55:06;;;;;;;9.63;8.82;;;;;;;19.22;91.36;101174.59;5031401;28;20029;-36
2022/06/05 11:57:49;;;;;;;10.30;9.30;;;;;;;19.16;93.02;101172.97;5031101;28;20029;-36
2022/06/05 12:00:19;;;;;;;12.18;9.90;;;;;;;18.92;94.92;101172.78;5031128;28;20410;-36
2022/06/05 12:03:15;;;;;;;10.90;9.90;;;;;;;18.71;97.17;101169.28;5030803;28;20394;-36
2022/06/05 12:05:53;;;;;;;10.63;9.73;;;;;;;18.66;97.08;101152.84;4971915;28;20043;-36
2022/06/05 12:08:23;;;;;;;10.40;9.50;;;;;;;18.55;98.62;101164.09;4971748;28;20157;-36
2022/06/05 12:11:05;;;;;;;10.45;9.57;;;;;;;18.58;97.93;101155.31;4971726;28;20042;-36
2022/06/05 12:13:30;;;;;;;10.52;9.52;;;;;;;18.58;99.79;101147.91;4972102;28;20041;-36
2022/06/05 12:16:06;;;;;;;;;;;;;;;18.72;95.27;101156.41;4972463;28;20035;-36